sensor_id;sensor_type;location;lat;lon;timestamp;P1;durP1;ratioP1;P2;durP2;ratioP2
38248;SDS011;24045;51.138;17.126;2023-08-17T00:13:45;8.50;;;3.70;;
38248;SDS011;24045;51.138;17.126;2023-08-17T00:28:47;6.80;;;4.00;;
38248;SDS011;24045;51.138;17.126;2023-08-17T00:43:50;8.10;;;4.20;;
38248;SDS011;24045;51.138;17.126;2023-08-17T00:58:53;7.80;;;4.40;;
38248;SDS011;24045;51.138;17.126;2023-08-17T01:14:02;13.30;;;5.80;;
38248;SDS011;24045;51.138;17.126;2023-08-17T01:29:11;8.40;;;4.40;;
38248;SDS011;24045;51.138;17.126;2023-08-17T01:44:14;8.80;;;4.40;;
38248;SDS011;24045;51.138;17.126;2023-08-17T01:59:17;6.90;;;3.30;;
38248;SDS011;24045;51.138;17.126;2023-08-17T02:14:20;8.10;;;4.10;;
38248;SDS011;24045;51.138;17.126;2023-08-17T02:29:23;8.30;;;3.90;;
38248;SDS011;24045;51.138;17.126;2023-08-17T02:44:26;9.00;;;4.70;;
38248;SDS011;24045;51.138;17.126;2023-08-17T02:59:30;8.20;;;3.30;;
38248;SDS011;24045;51.138;17.126;2023-08-17T03:14:33;9.20;;;4.00;;
38248;SDS011;24045;51.138;17.126;2023-08-17T03:29:36;5.90;;;3.20;;
38248;SDS011;24045;51.138;17.126;2023-08-17T03:44:39;6.30;;;3.50;;
38248;SDS011;24045;51.138;17.126;2023-08-17T03:59:42;5.50;;;3.10;;
38248;SDS011;24045;51.138;17.126;2023-08-17T04:14:45;7.30;;;3.50;;
38248;SDS011;24045;51.138;17.126;2023-08-17T04:29:47;6.10;;;3.40;;
38248;SDS011;24045;51.138;17.126;2023-08-17T04:44:50;6.90;;;3.70;;
38248;SDS011;24045;51.138;17.126;2023-08-17T04:59:53;8.70;;;4.60;;
38248;SDS011;24045;51.138;17.126;2023-08-17T05:14:56;8.60;;;5.70;;
38248;SDS011;24045;51.138;17.126;2023-08-17T05:30:02;11.40;;;5.70;;
38248;SDS011;24045;51.138;17.126;2023-08-17T05:45:05;11.80;;;3.80;;
38248;SDS011;24045;51.138;17.126;2023-08-17T06:00:08;10.30;;;5.70;;
38248;SDS011;24045;51.138;17.126;2023-08-17T06:15:15;6.70;;;3.40;;
38248;SDS011;24045;51.138;17.126;2023-08-17T06:30:18;8.50;;;3.80;;
38248;SDS011;24045;51.138;17.126;2023-08-17T06:45:21;9.60;;;4.40;;
38248;SDS011;24045;51.138;17.126;2023-08-17T07:00:25;10.10;;;5.00;;
38248;SDS011;24045;51.138;17.126;2023-08-17T07:15:29;5.40;;;3.40;;
38248;SDS011;24045;51.138;17.126;2023-08-17T07:30:32;7.00;;;3.90;;
38248;SDS011;24045;51.138;17.126;2023-08-17T07:45:36;9.10;;;3.40;;
38248;SDS011;24045;51.138;17.126;2023-08-17T08:00:38;6.90;;;3.50;;
38248;SDS011;24045;51.138;17.126;2023-08-17T08:15:41;7.90;;;3.40;;
38248;SDS011;24045;51.138;17.126;2023-08-17T08:30:44;4.90;;;2.70;;
38248;SDS011;24045;51.138;17.126;2023-08-17T08:45:47;5.50;;;3.50;;
38248;SDS011;24045;51.138;17.126;2023-08-17T09:00:52;7.50;;;2.70;;
38248;SDS011;24045;51.138;17.126;2023-08-17T09:15:57;6.20;;;3.00;;
38248;SDS011;24045;51.138;17.126;2023-08-17T09:31:08;6.00;;;3.30;;
38248;SDS011;24045;51.138;17.126;2023-08-17T09:46:11;7.70;;;3.00;;
38248;SDS011;24045;51.138;17.126;2023-08-17T10:01:14;6.10;;;3.10;;
38248;SDS011;24045;51.138;17.126;2023-08-17T10:31:25;6.70;;;3.00;;
38248;SDS011;24045;51.138;17.126;2023-08-17T10:46:32;6.30;;;3.50;;
38248;SDS011;24045;51.138;17.126;2023-08-17T11:01:41;10.40;;;4.50;;
38248;SDS011;24045;51.138;17.126;2023-08-17T11:16:46;7.80;;;4.40;;
38248;SDS011;24045;51.138;17.126;2023-08-17T11:31:50;5.80;;;3.80;;
38248;SDS011;24045;51.138;17.126;2023-08-17T11:46:53;5.90;;;3.40;;
38248;SDS011;24045;51.138;17.126;2023-08-17T12:01:56;8.20;;;4.10;;
38248;SDS011;24045;51.138;17.126;2023-08-17T12:17:02;6.20;;;3.50;;
38248;SDS011;24045;51.138;17.126;2023-08-17T12:32:05;7.70;;;4.20;;
38248;SDS011;24045;51.138;17.126;2023-08-17T12:47:09;6.50;;;3.80;;
38248;SDS011;24045;51.138;17.126;2023-08-17T13:02:12;7.40;;;4.60;;
38248;SDS011;24045;51.138;17.126;2023-08-17T13:17:15;7.30;;;4.80;;
38248;SDS011;24045;51.138;17.126;2023-08-17T13:32:19;7.30;;;4.90;;
38248;SDS011;24045;51.138;17.126;2023-08-17T13:47:23;7.90;;;5.70;;
38248;SDS011;24045;51.138;17.126;2023-08-17T14:02:25;10.00;;;5.00;;
38248;SDS011;24045;51.138;17.126;2023-08-17T14:17:32;10.00;;;5.30;;
38248;SDS011;24045;51.138;17.126;2023-08-17T14:32:35;9.60;;;5.80;;
38248;SDS011;24045;51.138;17.126;2023-08-17T14:47:38;8.70;;;5.00;;
38248;SDS011;24045;51.138;17.126;2023-08-17T15:02:41;8.20;;;4.00;;
38248;SDS011;24045;51.138;17.126;2023-08-17T15:17:44;7.70;;;3.00;;
38248;SDS011;24045;51.138;17.126;2023-08-17T15:32:47;10.40;;;4.40;;
38248;SDS011;24045;51.138;17.126;2023-08-17T15:47:50;10.70;;;6.00;;
38248;SDS011;24045;51.138;17.126;2023-08-17T16:02:54;9.80;;;6.20;;
38248;SDS011;24045;51.138;17.126;2023-08-17T16:17:58;9.00;;;5.60;;
38248;SDS011;24045;51.138;17.126;2023-08-17T16:33:04;9.20;;;5.40;;
38248;SDS011;24045;51.138;17.126;2023-08-17T16:48:07;9.10;;;5.10;;
38248;SDS011;24045;51.138;17.126;2023-08-17T17:03:10;10.80;;;5.80;;
38248;SDS011;24045;51.138;17.126;2023-08-17T17:18:13;13.50;;;7.60;;
38248;SDS011;24045;51.138;17.126;2023-08-17T17:33:16;10.70;;;5.90;;
38248;SDS011;24045;51.138;17.126;2023-08-17T17:48:18;9.00;;;5.20;;
38248;SDS011;24045;51.138;17.126;2023-08-17T18:03:21;10.80;;;6.20;;
38248;SDS011;24045;51.138;17.126;2023-08-17T18:18:25;9.80;;;5.50;;
38248;SDS011;24045;51.138;17.126;2023-08-17T18:33:28;9.60;;;5.70;;
38248;SDS011;24045;51.138;17.126;2023-08-17T18:48:31;8.50;;;6.10;;
38248;SDS011;24045;51.138;17.126;2023-08-17T19:03:34;11.80;;;6.90;;
38248;SDS011;24045;51.138;17.126;2023-08-17T19:18:38;9.60;;;6.00;;
38248;SDS011;24045;51.138;17.126;2023-08-17T19:33:41;10.50;;;6.60;;
38248;SDS011;24045;51.138;17.126;2023-08-17T19:48:44;15.00;;;8.20;;
38248;SDS011;24045;51.138;17.126;2023-08-17T20:03:46;9.70;;;6.50;;
38248;SDS011;24045;51.138;17.126;2023-08-17T20:18:52;8.90;;;6.30;;
38248;SDS011;24045;51.138;17.126;2023-08-17T20:33:55;13.00;;;7.80;;
38248;SDS011;24045;51.138;17.126;2023-08-17T20:48:58;9.10;;;6.60;;
38248;SDS011;24045;51.138;17.126;2023-08-17T21:04:01;13.00;;;7.20;;
38248;SDS011;24045;51.138;17.126;2023-08-17T21:19:04;13.50;;;7.60;;
38248;SDS011;24045;51.138;17.126;2023-08-17T21:34:07;13.70;;;7.30;;
38248;SDS011;24045;51.138;17.126;2023-08-17T21:49:10;8.90;;;5.20;;
38248;SDS011;24045;51.138;17.126;2023-08-17T22:04:13;10.40;;;6.40;;
38248;SDS011;24045;51.138;17.126;2023-08-17T22:19:15;11.00;;;7.10;;
38248;SDS011;24045;51.138;17.126;2023-08-17T22:34:18;11.20;;;6.80;;
38248;SDS011;24045;51.138;17.126;2023-08-17T22:49:21;10.40;;;7.10;;
38248;SDS011;24045;51.138;17.126;2023-08-17T23:04:24;12.10;;;7.20;;
38248;SDS011;24045;51.138;17.126;2023-08-17T23:19:30;11.30;;;8.20;;
38248;SDS011;24045;51.138;17.126;2023-08-17T23:34:33;13.70;;;9.00;;
38248;SDS011;24045;51.138;17.126;2023-08-17T23:49:38;12.30;;;8.40;;
